sensor_id;sensor_type;location;lat;lon;timestamp;P1;durP1;ratioP1;P2;durP2;ratioP2
3843;SDS011;1937;51.444;6.484;2024-03-06T00:01:51;25.20;;;15.90;;
3843;SDS011;1937;51.444;6.484;2024-03-06T00:04:17;25.90;;;15.77;;
3843;SDS011;1937;51.444;6.484;2024-03-06T00:06:44;23.30;;;13.37;;
3843;SDS011;1937;51.444;6.484;2024-03-06T00:09:11;27.73;;;15.77;;
3843;SDS011;1937;51.444;6.484;2024-03-06T00:11:39;32.00;;;15.47;;
3843;SDS011;1937;51.444;6.484;2024-03-06T00:14:06;23.57;;;14.13;;
3843;SDS011;1937;51.444;6.484;2024-03-06T00:16:32;24.10;;;13.80;;
3843;SDS011;1937;51.444;6.484;2024-03-06T00:18:59;22.47;;;13.37;;
3843;SDS011;1937;51.444;6.484;2024-03-06T00:21:26;23.93;;;14.80;;
3843;SDS011;1937;51.444;6.484;2024-03-06T00:23:53;20.90;;;14.20;;
3843;SDS011;1937;51.444;6.484;2024-03-06T00:26:20;21.60;;;13.10;;
3843;SDS011;1937;51.444;6.484;2024-03-06T00:28:49;31.40;;;11.80;;
3843;SDS011;1937;51.444;6.484;2024-03-06T00:31:15;20.23;;;11.03;;
3843;SDS011;1937;51.444;6.484;2024-03-06T00:33:43;16.63;;;11.00;;
3843;SDS011;1937;51.444;6.484;2024-03-06T00:36:09;15.40;;;10.97;;
3843;SDS011;1937;51.444;6.484;2024-03-06T00:38:36;23.67;;;12.20;;
3843;SDS011;1937;51.444;6.484;2024-03-06T00:41:03;22.37;;;13.03;;
3843;SDS011;1937;51.444;6.484;2024-03-06T00:43:30;20.70;;;13.37;;
3843;SDS011;1937;51.444;6.484;2024-03-06T00:45:58;23.60;;;12.13;;
3843;SDS011;1937;51.444;6.484;2024-03-06T00:48:25;25.23;;;14.20;;
3843;SDS011;1937;51.444;6.484;2024-03-06T00:50:52;24.43;;;16.10;;
3843;SDS011;1937;51.444;6.484;2024-03-06T00:53:19;30.70;;;16.90;;
3843;SDS011;1937;51.444;6.484;2024-03-06T00:55:46;27.47;;;14.77;;
3843;SDS011;1937;51.444;6.484;2024-03-06T00:58:12;27.87;;;14.03;;
3843;SDS011;1937;51.444;6.484;2024-03-06T01:00:39;24.43;;;12.60;;
3843;SDS011;1937;51.444;6.484;2024-03-06T01:03:07;26.77;;;14.93;;
3843;SDS011;1937;51.444;6.484;2024-03-06T01:05:34;21.90;;;13.73;;
3843;SDS011;1937;51.444;6.484;2024-03-06T01:08:00;25.00;;;13.57;;
3843;SDS011;1937;51.444;6.484;2024-03-06T01:10:27;26.23;;;13.90;;
3843;SDS011;1937;51.444;6.484;2024-03-06T01:12:54;21.97;;;13.90;;
3843;SDS011;1937;51.444;6.484;2024-03-06T01:15:21;26.37;;;16.10;;
3843;SDS011;1937;51.444;6.484;2024-03-06T01:17:47;35.80;;;18.60;;
3843;SDS011;1937;51.444;6.484;2024-03-06T01:20:16;27.90;;;17.40;;
3843;SDS011;1937;51.444;6.484;2024-03-06T01:22:43;35.03;;;17.63;;
3843;SDS011;1937;51.444;6.484;2024-03-06T01:25:11;35.10;;;17.70;;
3843;SDS011;1937;51.444;6.484;2024-03-06T01:27:37;38.10;;;19.03;;
3843;SDS011;1937;51.444;6.484;2024-03-06T01:30:05;36.97;;;20.30;;
3843;SDS011;1937;51.444;6.484;2024-03-06T01:32:32;32.87;;;18.50;;
3843;SDS011;1937;51.444;6.484;2024-03-06T01:34:59;29.53;;;17.60;;
3843;SDS011;1937;51.444;6.484;2024-03-06T01:37:27;31.40;;;18.10;;
3843;SDS011;1937;51.444;6.484;2024-03-06T01:39:54;33.20;;;19.67;;
3843;SDS011;1937;51.444;6.484;2024-03-06T01:42:20;26.97;;;18.53;;
3843;SDS011;1937;51.444;6.484;2024-03-06T01:44:47;32.03;;;19.10;;
3843;SDS011;1937;51.444;6.484;2024-03-06T01:47:14;32.37;;;16.53;;
3843;SDS011;1937;51.444;6.484;2024-03-06T01:49:41;30.30;;;18.90;;
3843;SDS011;1937;51.444;6.484;2024-03-06T01:52:08;32.07;;;15.70;;
3843;SDS011;1937;51.444;6.484;2024-03-06T01:54:39;27.60;;;15.70;;
3843;SDS011;1937;51.444;6.484;2024-03-06T01:57:06;33.83;;;16.97;;
3843;SDS011;1937;51.444;6.484;2024-03-06T01:59:34;31.47;;;15.87;;
3843;SDS011;1937;51.444;6.484;2024-03-06T02:02:04;26.50;;;14.33;;
3843;SDS011;1937;51.444;6.484;2024-03-06T02:04:32;32.13;;;15.70;;
3843;SDS011;1937;51.444;6.484;2024-03-06T02:07:00;23.97;;;14.77;;
3843;SDS011;1937;51.444;6.484;2024-03-06T02:09:27;31.87;;;16.23;;
3843;SDS011;1937;51.444;6.484;2024-03-06T02:11:55;26.07;;;15.53;;
3843;SDS011;1937;51.444;6.484;2024-03-06T02:14:22;25.87;;;14.90;;
3843;SDS011;1937;51.444;6.484;2024-03-06T02:16:49;32.23;;;18.47;;
3843;SDS011;1937;51.444;6.484;2024-03-06T02:19:16;27.00;;;16.07;;
3843;SDS011;1937;51.444;6.484;2024-03-06T02:21:43;35.30;;;16.93;;
3843;SDS011;1937;51.444;6.484;2024-03-06T02:24:10;23.50;;;14.87;;
3843;SDS011;1937;51.444;6.484;2024-03-06T02:26:38;37.97;;;17.43;;
3843;SDS011;1937;51.444;6.484;2024-03-06T02:29:05;30.10;;;15.90;;
3843;SDS011;1937;51.444;6.484;2024-03-06T02:31:32;25.30;;;15.80;;
3843;SDS011;1937;51.444;6.484;2024-03-06T02:33:59;25.43;;;15.50;;
3843;SDS011;1937;51.444;6.484;2024-03-06T02:36:29;31.07;;;15.80;;
3843;SDS011;1937;51.444;6.484;2024-03-06T02:38:58;29.40;;;14.97;;
3843;SDS011;1937;51.444;6.484;2024-03-06T02:41:26;30.87;;;15.50;;
3843;SDS011;1937;51.444;6.484;2024-03-06T02:43:53;31.67;;;15.77;;
3843;SDS011;1937;51.444;6.484;2024-03-06T02:46:20;20.87;;;14.60;;
3843;SDS011;1937;51.444;6.484;2024-03-06T02:48:46;27.33;;;16.67;;
3843;SDS011;1937;51.444;6.484;2024-03-06T02:51:17;25.03;;;14.40;;
3843;SDS011;1937;51.444;6.484;2024-03-06T02:53:44;31.43;;;16.77;;
3843;SDS011;1937;51.444;6.484;2024-03-06T02:56:16;28.83;;;16.30;;
3843;SDS011;1937;51.444;6.484;2024-03-06T02:58:43;23.57;;;14.20;;
3843;SDS011;1937;51.444;6.484;2024-03-06T03:01:10;28.93;;;17.13;;
3843;SDS011;1937;51.444;6.484;2024-03-06T03:03:39;26.30;;;14.90;;
3843;SDS011;1937;51.444;6.484;2024-03-06T03:06:06;24.53;;;15.03;;
3843;SDS011;1937;51.444;6.484;2024-03-06T03:08:32;30.37;;;16.27;;
3843;SDS011;1937;51.444;6.484;2024-03-06T03:10:59;25.47;;;16.20;;
3843;SDS011;1937;51.444;6.484;2024-03-06T03:13:27;28.47;;;16.03;;
3843;SDS011;1937;51.444;6.484;2024-03-06T03:15:55;26.00;;;17.77;;
3843;SDS011;1937;51.444;6.484;2024-03-06T03:18:21;23.40;;;15.03;;
3843;SDS011;1937;51.444;6.484;2024-03-06T03:20:48;28.27;;;16.70;;
3843;SDS011;1937;51.444;6.484;2024-03-06T03:23:15;28.20;;;15.50;;
3843;SDS011;1937;51.444;6.484;2024-03-06T03:25:47;26.80;;;15.50;;
3843;SDS011;1937;51.444;6.484;2024-03-06T03:28:13;28.67;;;16.70;;
3843;SDS011;1937;51.444;6.484;2024-03-06T03:30:43;23.70;;;14.83;;
3843;SDS011;1937;51.444;6.484;2024-03-06T03:33:10;27.23;;;16.70;;
3843;SDS011;1937;51.444;6.484;2024-03-06T03:35:37;27.57;;;15.50;;
3843;SDS011;1937;51.444;6.484;2024-03-06T03:38:04;27.97;;;16.80;;
3843;SDS011;1937;51.444;6.484;2024-03-06T03:40:31;20.30;;;13.10;;
3843;SDS011;1937;51.444;6.484;2024-03-06T03:42:58;22.83;;;15.60;;
3843;SDS011;1937;51.444;6.484;2024-03-06T03:45:31;28.73;;;16.17;;
3843;SDS011;1937;51.444;6.484;2024-03-06T03:47:59;22.60;;;14.27;;
3843;SDS011;1937;51.444;6.484;2024-03-06T03:50:27;19.50;;;13.10;;
3843;SDS011;1937;51.444;6.484;2024-03-06T03:52:54;21.57;;;14.63;;
3843;SDS011;1937;51.444;6.484;2024-03-06T03:55:23;22.53;;;13.23;;
3843;SDS011;1937;51.444;6.484;2024-03-06T03:57:49;22.60;;;13.57;;
3843;SDS011;1937;51.444;6.484;2024-03-06T04:00:16;27.57;;;17.07;;
3843;SDS011;1937;51.444;6.484;2024-03-06T04:02:43;33.43;;;16.60;;
3843;SDS011;1937;51.444;6.484;2024-03-06T04:05:11;27.70;;;15.60;;
3843;SDS011;1937;51.444;6.484;2024-03-06T04:07:38;25.10;;;13.97;;
3843;SDS011;1937;51.444;6.484;2024-03-06T04:10:05;31.50;;;17.27;;
3843;SDS011;1937;51.444;6.484;2024-03-06T04:12:35;25.27;;;15.87;;
3843;SDS011;1937;51.444;6.484;2024-03-06T04:15:02;33.97;;;15.63;;
3843;SDS011;1937;51.444;6.484;2024-03-06T04:17:29;35.93;;;19.00;;
3843;SDS011;1937;51.444;6.484;2024-03-06T04:19:55;46.80;;;18.70;;
3843;SDS011;1937;51.444;6.484;2024-03-06T04:22:24;25.43;;;13.17;;
3843;SDS011;1937;51.444;6.484;2024-03-06T04:24:51;29.00;;;14.50;;
3843;SDS011;1937;51.444;6.484;2024-03-06T04:27:17;48.53;;;16.50;;
3843;SDS011;1937;51.444;6.484;2024-03-06T04:29:44;26.63;;;17.43;;
3843;SDS011;1937;51.444;6.484;2024-03-06T04:32:11;28.80;;;16.10;;
3843;SDS011;1937;51.444;6.484;2024-03-06T04:34:37;32.70;;;17.83;;
3843;SDS011;1937;51.444;6.484;2024-03-06T04:37:04;38.10;;;18.60;;
3843;SDS011;1937;51.444;6.484;2024-03-06T04:39:33;35.00;;;17.13;;
3843;SDS011;1937;51.444;6.484;2024-03-06T04:41:59;56.63;;;19.87;;
3843;SDS011;1937;51.444;6.484;2024-03-06T04:44:27;52.10;;;21.97;;
3843;SDS011;1937;51.444;6.484;2024-03-06T04:46:54;54.77;;;20.20;;
3843;SDS011;1937;51.444;6.484;2024-03-06T04:49:21;119.17;;;28.23;;
3843;SDS011;1937;51.444;6.484;2024-03-06T04:51:48;49.80;;;24.30;;
3843;SDS011;1937;51.444;6.484;2024-03-06T04:54:14;51.60;;;24.73;;
3843;SDS011;1937;51.444;6.484;2024-03-06T04:56:42;78.67;;;26.40;;
3843;SDS011;1937;51.444;6.484;2024-03-06T04:59:09;45.33;;;21.90;;
3843;SDS011;1937;51.444;6.484;2024-03-06T05:01:35;54.33;;;23.37;;
3843;SDS011;1937;51.444;6.484;2024-03-06T05:04:02;101.47;;;27.20;;
3843;SDS011;1937;51.444;6.484;2024-03-06T05:06:29;59.00;;;21.20;;
3843;SDS011;1937;51.444;6.484;2024-03-06T05:08:56;98.47;;;23.80;;
3843;SDS011;1937;51.444;6.484;2024-03-06T05:11:22;43.30;;;20.60;;
3843;SDS011;1937;51.444;6.484;2024-03-06T05:13:50;27.33;;;16.03;;
3843;SDS011;1937;51.444;6.484;2024-03-06T05:16:17;30.07;;;16.37;;
3843;SDS011;1937;51.444;6.484;2024-03-06T05:18:44;38.03;;;17.93;;
3843;SDS011;1937;51.444;6.484;2024-03-06T05:21:10;47.87;;;20.30;;
3843;SDS011;1937;51.444;6.484;2024-03-06T05:23:38;41.80;;;17.77;;
3843;SDS011;1937;51.444;6.484;2024-03-06T05:26:04;46.03;;;19.40;;
3843;SDS011;1937;51.444;6.484;2024-03-06T05:28:31;24.17;;;14.57;;
3843;SDS011;1937;51.444;6.484;2024-03-06T05:30:59;57.07;;;20.17;;
3843;SDS011;1937;51.444;6.484;2024-03-06T05:33:26;38.13;;;18.73;;
3843;SDS011;1937;51.444;6.484;2024-03-06T05:35:55;26.70;;;15.60;;
3843;SDS011;1937;51.444;6.484;2024-03-06T05:38:24;33.83;;;17.43;;
3843;SDS011;1937;51.444;6.484;2024-03-06T05:40:51;54.27;;;19.17;;
3843;SDS011;1937;51.444;6.484;2024-03-06T05:43:18;25.80;;;15.50;;
3843;SDS011;1937;51.444;6.484;2024-03-06T05:45:44;38.80;;;18.77;;
3843;SDS011;1937;51.444;6.484;2024-03-06T05:48:12;40.30;;;18.53;;
3843;SDS011;1937;51.444;6.484;2024-03-06T05:50:39;28.13;;;17.07;;
3843;SDS011;1937;51.444;6.484;2024-03-06T05:53:06;29.33;;;17.07;;
3843;SDS011;1937;51.444;6.484;2024-03-06T05:55:32;43.40;;;18.20;;
3843;SDS011;1937;51.444;6.484;2024-03-06T05:57:59;36.20;;;18.50;;
3843;SDS011;1937;51.444;6.484;2024-03-06T06:00:26;61.30;;;22.20;;
3843;SDS011;1937;51.444;6.484;2024-03-06T06:02:52;73.40;;;24.97;;
3843;SDS011;1937;51.444;6.484;2024-03-06T06:05:20;64.93;;;24.27;;
3843;SDS011;1937;51.444;6.484;2024-03-06T06:07:48;58.70;;;25.20;;
3843;SDS011;1937;51.444;6.484;2024-03-06T06:10:15;67.93;;;24.83;;
3843;SDS011;1937;51.444;6.484;2024-03-06T06:12:41;41.70;;;20.90;;
3843;SDS011;1937;51.444;6.484;2024-03-06T06:15:08;44.47;;;23.27;;
3843;SDS011;1937;51.444;6.484;2024-03-06T06:17:36;53.30;;;25.87;;
3843;SDS011;1937;51.444;6.484;2024-03-06T06:20:03;61.73;;;25.10;;
3843;SDS011;1937;51.444;6.484;2024-03-06T06:22:35;45.97;;;21.60;;
3843;SDS011;1937;51.444;6.484;2024-03-06T06:25:02;60.33;;;22.17;;
3843;SDS011;1937;51.444;6.484;2024-03-06T06:27:30;96.67;;;23.50;;
3843;SDS011;1937;51.444;6.484;2024-03-06T06:29:57;122.97;;;27.40;;
3843;SDS011;1937;51.444;6.484;2024-03-06T06:32:24;76.80;;;23.30;;
3843;SDS011;1937;51.444;6.484;2024-03-06T06:34:50;60.77;;;20.67;;
3843;SDS011;1937;51.444;6.484;2024-03-06T06:37:17;40.03;;;19.83;;
3843;SDS011;1937;51.444;6.484;2024-03-06T06:39:46;70.03;;;19.77;;
3843;SDS011;1937;51.444;6.484;2024-03-06T06:42:13;115.50;;;24.63;;
3843;SDS011;1937;51.444;6.484;2024-03-06T06:44:40;87.13;;;20.30;;
3843;SDS011;1937;51.444;6.484;2024-03-06T06:47:07;52.70;;;18.20;;
3843;SDS011;1937;51.444;6.484;2024-03-06T06:49:33;34.50;;;17.07;;
3843;SDS011;1937;51.444;6.484;2024-03-06T06:52:00;33.80;;;18.47;;
3843;SDS011;1937;51.444;6.484;2024-03-06T06:54:27;43.13;;;18.53;;
3843;SDS011;1937;51.444;6.484;2024-03-06T06:56:55;41.90;;;19.07;;
3843;SDS011;1937;51.444;6.484;2024-03-06T06:59:22;41.97;;;19.90;;
3843;SDS011;1937;51.444;6.484;2024-03-06T07:01:48;48.77;;;20.60;;
3843;SDS011;1937;51.444;6.484;2024-03-06T07:04:15;52.53;;;19.10;;
3843;SDS011;1937;51.444;6.484;2024-03-06T07:06:45;34.83;;;16.90;;
3843;SDS011;1937;51.444;6.484;2024-03-06T07:09:12;44.40;;;19.00;;
3843;SDS011;1937;51.444;6.484;2024-03-06T07:11:40;46.83;;;19.90;;
3843;SDS011;1937;51.444;6.484;2024-03-06T07:14:09;49.60;;;22.90;;
3843;SDS011;1937;51.444;6.484;2024-03-06T07:16:41;49.70;;;21.13;;
3843;SDS011;1937;51.444;6.484;2024-03-06T07:19:08;60.17;;;21.07;;
3843;SDS011;1937;51.444;6.484;2024-03-06T07:21:35;53.10;;;21.23;;
3843;SDS011;1937;51.444;6.484;2024-03-06T07:24:02;96.57;;;25.37;;
3843;SDS011;1937;51.444;6.484;2024-03-06T07:26:29;120.53;;;27.93;;
3843;SDS011;1937;51.444;6.484;2024-03-06T07:28:58;40.43;;;20.87;;
3843;SDS011;1937;51.444;6.484;2024-03-06T07:31:26;47.03;;;20.47;;
3843;SDS011;1937;51.444;6.484;2024-03-06T07:33:53;41.07;;;19.67;;
3843;SDS011;1937;51.444;6.484;2024-03-06T07:36:20;42.40;;;21.40;;
3843;SDS011;1937;51.444;6.484;2024-03-06T07:38:47;40.10;;;20.00;;
3843;SDS011;1937;51.444;6.484;2024-03-06T07:41:13;32.63;;;17.83;;
3843;SDS011;1937;51.444;6.484;2024-03-06T07:43:40;38.60;;;18.33;;
3843;SDS011;1937;51.444;6.484;2024-03-06T07:46:07;35.03;;;17.07;;
3843;SDS011;1937;51.444;6.484;2024-03-06T07:48:36;34.30;;;18.80;;
3843;SDS011;1937;51.444;6.484;2024-03-06T07:51:04;28.83;;;18.77;;
3843;SDS011;1937;51.444;6.484;2024-03-06T07:53:31;29.47;;;17.27;;
3843;SDS011;1937;51.444;6.484;2024-03-06T07:55:57;34.90;;;21.60;;
3843;SDS011;1937;51.444;6.484;2024-03-06T07:58:24;36.50;;;19.17;;
3843;SDS011;1937;51.444;6.484;2024-03-06T08:00:51;30.13;;;19.20;;
3843;SDS011;1937;51.444;6.484;2024-03-06T08:03:20;29.07;;;17.50;;
3843;SDS011;1937;51.444;6.484;2024-03-06T08:05:49;28.80;;;18.70;;
3843;SDS011;1937;51.444;6.484;2024-03-06T08:08:17;35.90;;;18.07;;
3843;SDS011;1937;51.444;6.484;2024-03-06T08:10:44;30.60;;;19.00;;
3843;SDS011;1937;51.444;6.484;2024-03-06T08:13:11;28.17;;;17.80;;
3843;SDS011;1937;51.444;6.484;2024-03-06T08:15:37;27.93;;;19.03;;
3843;SDS011;1937;51.444;6.484;2024-03-06T08:18:05;32.33;;;19.27;;
3843;SDS011;1937;51.444;6.484;2024-03-06T08:20:32;31.33;;;18.93;;
3843;SDS011;1937;51.444;6.484;2024-03-06T08:23:00;35.47;;;19.33;;
3843;SDS011;1937;51.444;6.484;2024-03-06T08:25:27;25.50;;;16.27;;
3843;SDS011;1937;51.444;6.484;2024-03-06T08:27:58;21.33;;;13.57;;
3843;SDS011;1937;51.444;6.484;2024-03-06T08:30:25;20.70;;;12.33;;
3843;SDS011;1937;51.444;6.484;2024-03-06T08:32:52;16.60;;;11.30;;
3843;SDS011;1937;51.444;6.484;2024-03-06T08:35:18;13.40;;;9.37;;
3843;SDS011;1937;51.444;6.484;2024-03-06T08:37:46;16.00;;;9.27;;
3843;SDS011;1937;51.444;6.484;2024-03-06T08:40:14;10.83;;;8.73;;
3843;SDS011;1937;51.444;6.484;2024-03-06T08:42:42;11.50;;;9.30;;
3843;SDS011;1937;51.444;6.484;2024-03-06T08:45:09;13.30;;;9.57;;
3843;SDS011;1937;51.444;6.484;2024-03-06T08:47:36;10.80;;;7.87;;
3843;SDS011;1937;51.444;6.484;2024-03-06T08:50:03;11.70;;;9.07;;
3843;SDS011;1937;51.444;6.484;2024-03-06T08:52:32;11.20;;;8.77;;
3843;SDS011;1937;51.444;6.484;2024-03-06T08:54:59;11.30;;;7.90;;
3843;SDS011;1937;51.444;6.484;2024-03-06T08:57:30;12.53;;;8.40;;
3843;SDS011;1937;51.444;6.484;2024-03-06T08:59:57;64.60;;;15.50;;
3843;SDS011;1937;51.444;6.484;2024-03-06T09:02:24;10.47;;;7.23;;
3843;SDS011;1937;51.444;6.484;2024-03-06T09:04:50;13.93;;;6.73;;
3843;SDS011;1937;51.444;6.484;2024-03-06T09:07:18;7.73;;;6.33;;
3843;SDS011;1937;51.444;6.484;2024-03-06T09:09:48;11.20;;;7.37;;
3843;SDS011;1937;51.444;6.484;2024-03-06T09:12:15;8.93;;;7.07;;
3843;SDS011;1937;51.444;6.484;2024-03-06T09:14:44;10.13;;;8.63;;
3843;SDS011;1937;51.444;6.484;2024-03-06T09:17:11;12.13;;;8.80;;
3843;SDS011;1937;51.444;6.484;2024-03-06T09:19:38;10.37;;;7.80;;
3843;SDS011;1937;51.444;6.484;2024-03-06T09:22:05;11.63;;;8.40;;
3843;SDS011;1937;51.444;6.484;2024-03-06T09:24:32;12.27;;;8.50;;
3843;SDS011;1937;51.444;6.484;2024-03-06T09:27:00;11.87;;;8.00;;
3843;SDS011;1937;51.444;6.484;2024-03-06T09:29:27;8.70;;;7.20;;
3843;SDS011;1937;51.444;6.484;2024-03-06T09:31:56;9.63;;;7.97;;
3843;SDS011;1937;51.444;6.484;2024-03-06T09:34:23;14.30;;;8.10;;
3843;SDS011;1937;51.444;6.484;2024-03-06T09:36:49;13.50;;;7.97;;
3843;SDS011;1937;51.444;6.484;2024-03-06T09:39:17;13.97;;;8.87;;
3843;SDS011;1937;51.444;6.484;2024-03-06T09:41:45;10.00;;;8.43;;
3843;SDS011;1937;51.444;6.484;2024-03-06T09:44:13;13.63;;;8.37;;
3843;SDS011;1937;51.444;6.484;2024-03-06T09:46:41;11.27;;;8.50;;
3843;SDS011;1937;51.444;6.484;2024-03-06T09:49:10;11.10;;;7.90;;
3843;SDS011;1937;51.444;6.484;2024-03-06T09:51:39;14.20;;;9.67;;
3843;SDS011;1937;51.444;6.484;2024-03-06T09:54:10;11.73;;;8.07;;
3843;SDS011;1937;51.444;6.484;2024-03-06T09:56:39;11.20;;;8.47;;
3843;SDS011;1937;51.444;6.484;2024-03-06T09:59:07;12.73;;;9.43;;
3843;SDS011;1937;51.444;6.484;2024-03-06T10:01:34;12.33;;;7.43;;
3843;SDS011;1937;51.444;6.484;2024-03-06T10:04:18;14.67;;;9.43;;
3843;SDS011;1937;51.444;6.484;2024-03-06T10:06:45;17.30;;;9.77;;
3843;SDS011;1937;51.444;6.484;2024-03-06T10:09:12;10.10;;;8.50;;
3843;SDS011;1937;51.444;6.484;2024-03-06T10:11:43;12.50;;;8.23;;
3843;SDS011;1937;51.444;6.484;2024-03-06T10:14:09;11.40;;;9.00;;
3843;SDS011;1937;51.444;6.484;2024-03-06T10:16:37;10.70;;;8.70;;
3843;SDS011;1937;51.444;6.484;2024-03-06T10:19:18;13.90;;;9.37;;
3843;SDS011;1937;51.444;6.484;2024-03-06T10:21:46;11.47;;;8.20;;
3843;SDS011;1937;51.444;6.484;2024-03-06T10:24:16;14.07;;;9.37;;
3843;SDS011;1937;51.444;6.484;2024-03-06T10:26:45;11.13;;;8.50;;
3843;SDS011;1937;51.444;6.484;2024-03-06T10:29:14;11.20;;;8.40;;
3843;SDS011;1937;51.444;6.484;2024-03-06T10:31:46;13.60;;;9.90;;
3843;SDS011;1937;51.444;6.484;2024-03-06T10:34:13;14.17;;;9.03;;
3843;SDS011;1937;51.444;6.484;2024-03-06T10:36:41;13.83;;;8.80;;
3843;SDS011;1937;51.444;6.484;2024-03-06T10:39:09;14.30;;;9.30;;
3843;SDS011;1937;51.444;6.484;2024-03-06T10:41:38;10.70;;;8.23;;
3843;SDS011;1937;51.444;6.484;2024-03-06T10:44:08;13.23;;;9.53;;
3843;SDS011;1937;51.444;6.484;2024-03-06T10:46:40;15.70;;;8.43;;
3843;SDS011;1937;51.444;6.484;2024-03-06T10:49:10;11.60;;;8.93;;
3843;SDS011;1937;51.444;6.484;2024-03-06T10:51:38;11.03;;;8.47;;
3843;SDS011;1937;51.444;6.484;2024-03-06T10:54:10;11.30;;;7.70;;
3843;SDS011;1937;51.444;6.484;2024-03-06T10:56:41;14.20;;;9.60;;
3843;SDS011;1937;51.444;6.484;2024-03-06T10:59:09;11.23;;;8.50;;
3843;SDS011;1937;51.444;6.484;2024-03-06T11:01:39;12.07;;;8.50;;
3843;SDS011;1937;51.444;6.484;2024-03-06T11:04:08;11.37;;;9.00;;
3843;SDS011;1937;51.444;6.484;2024-03-06T11:06:36;16.17;;;8.90;;
3843;SDS011;1937;51.444;6.484;2024-03-06T11:09:03;11.13;;;7.77;;
3843;SDS011;1937;51.444;6.484;2024-03-06T11:11:46;10.97;;;8.23;;
3843;SDS011;1937;51.444;6.484;2024-03-06T11:14:14;11.97;;;8.90;;
3843;SDS011;1937;51.444;6.484;2024-03-06T11:16:55;11.90;;;9.00;;
3843;SDS011;1937;51.444;6.484;2024-03-06T11:19:23;13.23;;;9.43;;
3843;SDS011;1937;51.444;6.484;2024-03-06T11:21:50;13.40;;;9.03;;
3843;SDS011;1937;51.444;6.484;2024-03-06T11:24:18;15.27;;;10.03;;
3843;SDS011;1937;51.444;6.484;2024-03-06T11:26:48;14.77;;;9.60;;
3843;SDS011;1937;51.444;6.484;2024-03-06T11:29:16;12.50;;;9.53;;
3843;SDS011;1937;51.444;6.484;2024-03-06T11:32:00;12.47;;;10.87;;
3843;SDS011;1937;51.444;6.484;2024-03-06T11:34:27;13.33;;;8.97;;
3843;SDS011;1937;51.444;6.484;2024-03-06T11:36:56;10.53;;;7.80;;
3843;SDS011;1937;51.444;6.484;2024-03-06T11:39:23;11.07;;;7.63;;
3843;SDS011;1937;51.444;6.484;2024-03-06T11:41:51;14.70;;;8.80;;
3843;SDS011;1937;51.444;6.484;2024-03-06T11:44:19;12.90;;;8.87;;
3843;SDS011;1937;51.444;6.484;2024-03-06T11:46:47;15.30;;;11.00;;
3843;SDS011;1937;51.444;6.484;2024-03-06T11:49:15;16.97;;;10.13;;
3843;SDS011;1937;51.444;6.484;2024-03-06T11:51:44;15.43;;;9.40;;
3843;SDS011;1937;51.444;6.484;2024-03-06T11:54:12;16.40;;;11.00;;
3843;SDS011;1937;51.444;6.484;2024-03-06T11:56:39;13.60;;;9.00;;
3843;SDS011;1937;51.444;6.484;2024-03-06T11:59:07;12.53;;;8.13;;
3843;SDS011;1937;51.444;6.484;2024-03-06T12:01:35;12.03;;;9.10;;
3843;SDS011;1937;51.444;6.484;2024-03-06T12:04:02;15.93;;;9.87;;
3843;SDS011;1937;51.444;6.484;2024-03-06T12:06:29;14.10;;;10.53;;
3843;SDS011;1937;51.444;6.484;2024-03-06T12:08:56;13.70;;;10.30;;
3843;SDS011;1937;51.444;6.484;2024-03-06T12:11:24;16.60;;;11.60;;
3843;SDS011;1937;51.444;6.484;2024-03-06T12:13:53;15.90;;;10.33;;
3843;SDS011;1937;51.444;6.484;2024-03-06T12:16:23;15.43;;;10.57;;
3843;SDS011;1937;51.444;6.484;2024-03-06T12:18:54;13.33;;;9.87;;
3843;SDS011;1937;51.444;6.484;2024-03-06T12:21:22;15.57;;;10.97;;
3843;SDS011;1937;51.444;6.484;2024-03-06T12:23:49;21.27;;;10.60;;
3843;SDS011;1937;51.444;6.484;2024-03-06T12:26:16;14.00;;;9.60;;
3843;SDS011;1937;51.444;6.484;2024-03-06T12:28:48;17.53;;;10.63;;
3843;SDS011;1937;51.444;6.484;2024-03-06T12:31:15;16.67;;;10.10;;
3843;SDS011;1937;51.444;6.484;2024-03-06T12:33:44;14.73;;;9.80;;
3843;SDS011;1937;51.444;6.484;2024-03-06T12:36:11;10.60;;;8.40;;
3843;SDS011;1937;51.444;6.484;2024-03-06T12:38:37;13.20;;;8.27;;
3843;SDS011;1937;51.444;6.484;2024-03-06T12:41:04;11.73;;;8.33;;
3843;SDS011;1937;51.444;6.484;2024-03-06T12:43:32;9.47;;;6.40;;
3843;SDS011;1937;51.444;6.484;2024-03-06T12:45:59;12.50;;;8.60;;
3843;SDS011;1937;51.444;6.484;2024-03-06T12:48:27;12.77;;;9.50;;
3843;SDS011;1937;51.444;6.484;2024-03-06T12:50:56;15.00;;;10.80;;
3843;SDS011;1937;51.444;6.484;2024-03-06T12:53:29;13.63;;;10.20;;
3843;SDS011;1937;51.444;6.484;2024-03-06T12:55:56;16.50;;;10.97;;
3843;SDS011;1937;51.444;6.484;2024-03-06T12:58:23;11.77;;;8.87;;
3843;SDS011;1937;51.444;6.484;2024-03-06T13:00:50;14.00;;;9.33;;
3843;SDS011;1937;51.444;6.484;2024-03-06T13:03:17;14.33;;;9.57;;
3843;SDS011;1937;51.444;6.484;2024-03-06T13:05:43;18.63;;;11.53;;
3843;SDS011;1937;51.444;6.484;2024-03-06T13:08:12;16.63;;;12.50;;
3843;SDS011;1937;51.444;6.484;2024-03-06T13:10:40;21.47;;;13.43;;
3843;SDS011;1937;51.444;6.484;2024-03-06T13:13:07;21.40;;;14.17;;
3843;SDS011;1937;51.444;6.484;2024-03-06T13:15:33;25.10;;;14.17;;
3843;SDS011;1937;51.444;6.484;2024-03-06T13:18:02;20.97;;;13.93;;
3843;SDS011;1937;51.444;6.484;2024-03-06T13:20:28;20.40;;;14.77;;
3843;SDS011;1937;51.444;6.484;2024-03-06T13:22:55;22.87;;;14.33;;
3843;SDS011;1937;51.444;6.484;2024-03-06T13:25:23;21.57;;;13.80;;
3843;SDS011;1937;51.444;6.484;2024-03-06T13:27:50;20.70;;;14.20;;
3843;SDS011;1937;51.444;6.484;2024-03-06T13:30:19;32.70;;;20.30;;
3843;SDS011;1937;51.444;6.484;2024-03-06T13:32:46;30.70;;;19.97;;
3843;SDS011;1937;51.444;6.484;2024-03-06T13:35:13;31.20;;;19.63;;
3843;SDS011;1937;51.444;6.484;2024-03-06T13:37:40;32.07;;;21.30;;
3843;SDS011;1937;51.444;6.484;2024-03-06T13:40:07;41.50;;;26.37;;
3843;SDS011;1937;51.444;6.484;2024-03-06T13:42:37;45.43;;;25.07;;
3843;SDS011;1937;51.444;6.484;2024-03-06T13:45:04;39.20;;;23.43;;
3843;SDS011;1937;51.444;6.484;2024-03-06T13:47:36;45.90;;;26.90;;
3843;SDS011;1937;51.444;6.484;2024-03-06T13:50:03;41.50;;;23.60;;
3843;SDS011;1937;51.444;6.484;2024-03-06T13:52:33;44.80;;;24.23;;
3843;SDS011;1937;51.444;6.484;2024-03-06T13:55:00;48.47;;;25.10;;
3843;SDS011;1937;51.444;6.484;2024-03-06T13:57:27;42.70;;;27.00;;
3843;SDS011;1937;51.444;6.484;2024-03-06T13:59:55;48.50;;;28.43;;
3843;SDS011;1937;51.444;6.484;2024-03-06T14:02:22;43.17;;;26.50;;
3843;SDS011;1937;51.444;6.484;2024-03-06T14:04:49;46.40;;;28.07;;
3843;SDS011;1937;51.444;6.484;2024-03-06T14:07:15;47.13;;;27.37;;
3843;SDS011;1937;51.444;6.484;2024-03-06T14:09:42;41.73;;;25.50;;
3843;SDS011;1937;51.444;6.484;2024-03-06T14:12:09;52.23;;;27.10;;
3843;SDS011;1937;51.444;6.484;2024-03-06T14:14:36;48.73;;;27.50;;
3843;SDS011;1937;51.444;6.484;2024-03-06T14:17:04;47.47;;;27.57;;
3843;SDS011;1937;51.444;6.484;2024-03-06T14:19:31;46.40;;;26.03;;
3843;SDS011;1937;51.444;6.484;2024-03-06T14:21:57;51.73;;;27.57;;
3843;SDS011;1937;51.444;6.484;2024-03-06T14:24:24;49.43;;;25.97;;
3843;SDS011;1937;51.444;6.484;2024-03-06T14:26:50;50.07;;;25.67;;
3843;SDS011;1937;51.444;6.484;2024-03-06T14:29:17;46.17;;;25.97;;
3843;SDS011;1937;51.444;6.484;2024-03-06T14:31:44;43.90;;;25.17;;
3843;SDS011;1937;51.444;6.484;2024-03-06T14:34:12;47.27;;;26.50;;
3843;SDS011;1937;51.444;6.484;2024-03-06T14:36:39;52.23;;;30.53;;
3843;SDS011;1937;51.444;6.484;2024-03-06T14:39:07;45.77;;;24.33;;
3843;SDS011;1937;51.444;6.484;2024-03-06T14:41:35;44.03;;;27.77;;
3843;SDS011;1937;51.444;6.484;2024-03-06T14:44:02;47.53;;;25.37;;
3843;SDS011;1937;51.444;6.484;2024-03-06T14:46:28;43.57;;;25.53;;
3843;SDS011;1937;51.444;6.484;2024-03-06T14:48:55;46.70;;;26.47;;
3843;SDS011;1937;51.444;6.484;2024-03-06T14:51:23;45.90;;;24.57;;
3843;SDS011;1937;51.444;6.484;2024-03-06T14:53:50;42.00;;;26.33;;